Time;durP1;ratioP1;P1;durP2;ratioP2;P2;SDS_P1;SDS_P2;PMS_P1;PMS_P2;Temp;Humidity;BMP_temperature;BMP_pressure;BME280_temperature;BME280_humidity;BME280_pressure;Samples;Min_cycle;Max_cycle;Signal;HPM_P1;HPM_P2
2021/05/02 00:01:13;;;;;;;12.85;3.87;;;;;;;15.88;79.57;96323.05;1724032;83;21159;-76
2021/05/02 00:03:42;;;;;;;15.83;4.53;;;;;;;15.86;79.48;96325.05;1724104;83;21096;-76
2021/05/02 00:06:12;;;;;;;16.40;5.58;;;;;;;15.84;79.91;96324.91;1723941;83;21184;-77
2021/05/02 00:08:40;;;;;;;14.23;4.37;;;;;;;15.75;79.24;96317.44;1722285;83;21155;-77
2021/05/02 00:11:09;;;;;;;16.17;4.35;;;;;;;15.76;79.56;96311.13;1703450;83;21172;-76
2021/05/02 00:13:39;;;;;;;12.98;3.55;;;;;;;15.80;79.87;96307.13;1694946;85;21286;-75
2021/05/02 00:16:07;;;;;;;12.43;3.40;;;;;;;15.79;79.61;96301.48;1695027;85;21179;-76
2021/05/02 00:18:35;;;;;;;10.53;3.30;;;;;;;15.84;79.73;96299.14;1723302;83;21147;-77
2021/05/02 00:21:09;;;;;;;16.05;3.92;;;;;;;15.89;80.00;96291.97;1716295;83;21133;-76
2021/05/02 00:23:41;;;;;;;17.77;4.05;;;;;;;15.98;80.20;96286.93;1710370;84;21133;-76
2021/05/02 00:26:10;;;;;;;11.55;3.15;;;;;;;16.04;80.04;96288.05;1710383;84;21157;-76
2021/05/02 00:28:48;;;;;;;13.32;4.78;;;;;;;16.03;79.92;96287.23;1707887;84;21478;-77
2021/05/02 00:31:17;;;;;;;10.50;3.20;;;;;;;16.02;79.59;96269.64;1710349;84;21136;-76
2021/05/02 00:33:46;;;;;;;21.02;3.92;;;;;;;16.01;79.49;96269.30;1710485;84;21113;-76
2021/05/02 00:36:13;;;;;;;13.65;3.62;;;;;;;16.04;79.84;96265.46;1710616;84;21119;-77
2021/05/02 00:38:42;;;;;;;14.83;4.03;;;;;;;16.07;79.76;96263.27;1710601;83;21144;-76
2021/05/02 00:41:20;;;;;;;9.58;3.92;;;;;;;16.15;79.87;96262.39;1698189;84;21233;-76
2021/05/02 00:44:05;;;;;;;17.80;5.03;;;;;;;16.19;79.75;96257.02;1681765;85;21194;-77
2021/05/02 00:46:49;;;;;;;12.43;3.60;;;;;;;16.22;79.74;96259.33;1684112;84;21212;-76
2021/05/02 00:49:39;;;;;;;16.65;4.20;;;;;;;16.19;79.40;96254.36;1681970;85;21271;-75
2021/05/02 00:52:19;;;;;;;13.15;3.58;;;;;;;16.18;79.52;96255.88;1683924;84;21164;-75
2021/05/02 00:55:03;;;;;;;12.25;4.33;;;;;;;16.24;79.46;96257.33;1765020;79;28586;-76
2021/05/02 00:57:39;;;;;;;16.15;3.90;;;;;;;16.18;79.89;96257.20;1741395;82;21570;-77
2021/05/02 01:00:09;;;;;;;11.83;3.80;;;;;;;16.18;79.89;96257.20;1731479;82;21168;-73
2021/05/02 01:02:37;;;;;;;16.25;3.80;;;;;;;16.19;79.73;96265.00;1728623;82;21201;-75
2021/05/02 01:05:08;;;;;;;10.58;4.03;;;;;;;16.20;79.66;96263.18;1723821;83;21747;-76
2021/05/02 01:07:42;;;;;;;9.78;3.42;;;;;;;16.20;79.61;96263.99;1722822;83;21191;-76
2021/05/02 01:10:16;;;;;;;9.78;3.30;;;;;;;16.14;79.48;96267.38;1667781;85;21152;-76
2021/05/02 01:12:48;;;;;;;17.80;3.50;;;;;;;15.97;79.51;96265.86;1698648;83;21128;-77
2021/05/02 01:15:23;;;;;;;10.98;3.60;;;;;;;15.91;79.68;96261.55;1723664;83;21171;-76
2021/05/02 01:17:59;;;;;;;19.70;3.65;;;;;;;15.92;79.72;96262.40;1721670;83;21144;-76
2021/05/02 01:20:34;;;;;;;8.48;3.10;;;;;;;15.96;79.79;96258.87;1723594;83;21151;-76
2021/05/02 01:23:12;;;;;;;12.75;3.37;;;;;;;15.92;79.61;96250.44;1694257;85;21558;-76
2021/05/02 01:25:40;;;;;;;12.25;3.20;;;;;;;15.89;79.81;96241.00;1696926;83;21164;-77
2021/05/02 01:28:08;;;;;;;5.12;2.92;;;;;;;15.90;79.67;96241.81;1695395;83;21128;-76
2021/05/02 01:30:37;;;;;;;8.03;2.95;;;;;;;15.96;79.97;96246.92;1708727;83;21163;-76
2021/05/02 01:33:05;;;;;;;7.05;3.12;;;;;;;15.99;79.66;96245.25;1723917;83;21164;-76
2021/05/02 01:35:33;;;;;;;14.20;4.03;;;;;;;15.99;79.86;96242.59;1724124;82;21225;-76
2021/05/02 01:38:01;;;;;;;9.98;4.28;;;;;;;15.81;79.58;96237.53;1723915;83;21143;-75
2021/05/02 01:40:28;;;;;;;10.23;4.03;;;;;;;15.73;80.24;96238.44;1723795;83;21215;-75
2021/05/02 01:42:56;;;;;;;13.18;4.35;;;;;;;15.60;80.36;96227.88;1723687;83;21177;-76
2021/05/02 01:45:24;;;;;;;6.78;3.80;;;;;;;15.50;80.32;96223.81;1723691;83;21573;-75
2021/05/02 01:47:59;;;;;;;11.80;3.45;;;;;;;15.41;81.77;96211.89;1723858;82;21179;-77
2021/05/02 01:50:28;;;;;;;9.33;4.10;;;;;;;15.37;81.03;96206.62;1702844;83;21147;-75
2021/05/02 01:52:55;;;;;;;10.20;3.95;;;;;;;15.33;81.14;96206.63;1712286;81;21200;-76
2021/05/02 01:55:22;;;;;;;9.28;3.70;;;;;;;15.34;81.00;96207.47;1711394;83;21661;-76
2021/05/02 01:57:52;;;;;;;12.30;3.75;;;;;;;15.33;81.06;96199.98;1710956;84;21590;-77
2021/05/02 02:00:43;;;;;;;11.45;4.03;;;;;;;15.29;81.19;96195.53;1685076;84;21173;-76
2021/05/02 02:03:11;;;;;;;19.12;4.75;;;;;;;15.26;80.93;96192.41;1655833;84;21619;-74
2021/05/02 02:05:39;;;;;;;11.88;3.83;;;;;;;15.17;81.33;96198.28;1693482;82;21160;-74
2021/05/02 02:08:08;;;;;;;11.18;3.85;;;;;;;15.16;81.40;96196.63;1710527;83;21164;-76
2021/05/02 02:10:37;;;;;;;10.23;4.37;;;;;;;15.16;81.33;96191.31;1710196;84;21634;-76
2021/05/02 02:13:10;;;;;;;9.83;4.08;;;;;;;15.11;81.21;96186.53;1710241;84;21169;-76
2021/05/02 02:15:38;;;;;;;15.55;4.25;;;;;;;15.10;81.61;96190.17;1696787;83;21589;-76
2021/05/02 02:18:12;;;;;;;14.13;5.35;;;;;;;15.07;81.82;96189.19;1681866;85;21350;-75
2021/05/02 02:20:54;;;;;;;14.05;5.70;;;;;;;15.04;82.12;96186.06;1682000;85;21566;-77
2021/05/02 02:23:30;;;;;;;14.87;5.60;;;;;;;15.04;82.01;96190.04;1681942;85;21224;-75
2021/05/02 02:26:09;;;;;;;13.10;6.57;;;;;;;15.05;82.30;96199.66;1682365;85;21214;-76
2021/05/02 02:28:54;;;;;;;12.43;4.85;;;;;;;15.14;82.29;96187.48;1787466;80;23152;-75
2021/05/02 02:31:23;;;;;;;14.15;5.10;;;;;;;15.04;82.88;96188.20;1760913;81;21116;-76
2021/05/02 02:33:52;;;;;;;13.08;6.67;;;;;;;14.98;82.71;96191.55;1754723;81;21164;-75
2021/05/02 02:36:21;;;;;;;16.57;7.33;;;;;;;14.92;82.88;96187.77;1752017;82;21553;-74
2021/05/02 02:38:49;;;;;;;11.00;6.42;;;;;;;14.90;83.11;96188.42;1724831;82;21199;-74
2021/05/02 02:41:18;;;;;;;14.98;7.83;;;;;;;14.86;84.48;96184.48;1755798;81;22189;-75
2021/05/02 02:43:55;;;;;;;19.15;7.17;;;;;;;14.82;83.55;96179.19;1761917;81;21164;-74
2021/05/02 02:46:24;;;;;;;21.45;7.15;;;;;;;14.82;83.73;96175.20;1757638;81;21625;-75
2021/05/02 02:48:58;;;;;;;18.87;7.17;;;;;;;14.81;83.58;96190.30;1762216;81;21140;-75
2021/05/02 02:51:29;;;;;;;10.78;6.05;;;;;;;14.84;83.55;96189.13;1761884;81;21119;-73
2021/05/02 02:53:59;;;;;;;17.90;4.00;;;;;;;14.86;83.75;96177.01;1758548;81;21183;-75
2021/05/02 02:56:29;;;;;;;12.80;3.62;;;;;;;14.86;83.34;96177.85;1752049;81;21159;-75
2021/05/02 02:59:29;;;;;;;8.73;3.70;;;;;;;14.90;82.97;96184.45;1749383;82;21596;-78
2021/05/02 03:01:58;;;;;;;8.13;3.80;;;;;;;14.93;82.23;96177.99;1734467;82;21132;-75
2021/05/02 03:04:28;;;;;;;7.90;2.83;;;;;;;14.98;82.04;96171.66;1722461;83;21163;-75
2021/05/02 03:06:59;;;;;;;10.43;4.20;;;;;;;15.04;81.71;96175.45;1722154;83;21219;-75
2021/05/02 03:09:28;;;;;;;13.80;3.58;;;;;;;15.04;81.20;96176.77;1722302;83;21160;-76
2021/05/02 03:11:56;;;;;;;7.75;2.70;;;;;;;15.08;80.75;96168.80;1749208;82;21144;-73
2021/05/02 03:14:23;;;;;;;7.17;2.98;;;;;;;15.12;81.07;96169.61;1702623;83;21137;-77
2021/05/02 03:16:52;;;;;;;6.08;2.70;;;;;;;15.13;80.36;96167.25;1731610;83;21610;-76
2021/05/02 03:19:27;;;;;;;16.25;3.30;;;;;;;15.17;80.31;96167.75;1743858;82;21139;-76
2021/05/02 03:22:10;;;;;;;8.18;3.98;;;;;;;15.18;79.99;96176.02;1757390;81;21112;-76
2021/05/02 03:24:48;;;;;;;8.58;3.37;;;;;;;15.22;79.90;96164.06;1729917;82;21179;-76
2021/05/02 03:27:27;;;;;;;9.18;2.80;;;;;;;15.24;79.63;96179.80;1755530;81;21183;-74
2021/05/02 03:29:59;;;;;;;12.60;3.12;;;;;;;15.27;79.38;96184.77;1748671;82;21164;-74
2021/05/02 03:32:34;;;;;;;18.60;3.83;;;;;;;15.34;79.50;96186.23;1733627;82;21222;-78
2021/05/02 03:35:05;;;;;;;6.85;2.85;;;;;;;15.40;79.50;96188.17;1739231;82;21120;-76
2021/05/02 03:37:36;;;;;;;8.43;4.33;;;;;;;15.48;79.45;96188.12;1714424;82;21172;-76
2021/05/02 03:40:06;;;;;;;8.50;3.55;;;;;;;15.55;79.42;96186.41;1748731;82;21139;-77
2021/05/02 03:42:34;;;;;;;15.50;4.22;;;;;;;15.66;79.45;96189.66;1748827;82;21131;-76
2021/05/02 03:45:04;;;;;;;10.95;3.25;;;;;;;15.76;79.67;96192.41;1749028;82;21164;-75
2021/05/02 03:47:31;;;;;;;8.63;3.45;;;;;;;15.86;79.56;96198.02;1697213;84;21214;-76
2021/05/02 03:49:59;;;;;;;12.07;3.55;;;;;;;15.92;79.41;96190.13;1706690;82;21214;-76
2021/05/02 03:52:27;;;;;;;13.03;3.67;;;;;;;16.03;79.40;96191.55;1748850;82;21155;-76
2021/05/02 03:54:54;;;;;;;14.07;3.75;;;;;;;16.10;79.24;96184.18;1748994;82;21152;-77
2021/05/02 03:57:22;;;;;;;12.75;4.20;;;;;;;16.12;79.10;96189.63;1748879;82;21136;-77
2021/05/02 03:59:50;;;;;;;7.47;3.72;;;;;;;16.22;78.78;96189.39;1748769;82;21117;-76
2021/05/02 04:02:17;;;;;;;9.90;3.67;;;;;;;16.28;78.49;96186.00;1748693;81;21458;-76
2021/05/02 04:04:45;;;;;;;11.05;3.40;;;;;;;16.29;78.37;96184.16;1748767;82;21132;-76
2021/05/02 04:07:14;;;;;;;14.65;3.92;;;;;;;16.31;78.33;96182.98;1748727;82;21605;-77
2021/05/02 04:09:46;;;;;;;9.55;3.87;;;;;;;16.22;78.34;96178.23;1727435;82;21598;-80
2021/05/02 04:12:14;;;;;;;13.00;4.08;;;;;;;16.15;78.11;96186.62;1745245;82;21573;-78
2021/05/02 04:14:42;;;;;;;8.73;3.77;;;;;;;16.14;77.91;96183.64;1748731;82;21566;-78
2021/05/02 04:17:13;;;;;;;9.98;4.10;;;;;;;16.14;77.60;96192.13;1724240;82;21593;-77
2021/05/02 04:19:44;;;;;;;19.00;4.90;;;;;;;16.03;77.46;96164.13;1716814;83;21530;-75
2021/05/02 04:22:14;;;;;;;15.68;4.55;;;;;;;16.19;77.53;96184.42;1716902;83;21140;-75
2021/05/02 04:24:44;;;;;;;11.15;4.47;;;;;;;16.17;77.63;96181.96;1745167;82;21159;-76
2021/05/02 04:27:12;;;;;;;10.58;4.55;;;;;;;16.20;77.89;96174.12;1748310;82;21164;-74
2021/05/02 04:29:41;;;;;;;14.75;4.30;;;;;;;16.24;77.94;96174.06;1743790;82;21179;-77
2021/05/02 04:32:08;;;;;;;9.48;4.20;;;;;;;16.28;77.95;96167.91;1743563;82;21161;-76
2021/05/02 04:34:36;;;;;;;13.62;3.83;;;;;;;16.33;77.96;96170.31;1739069;82;21168;-73
2021/05/02 04:37:04;;;;;;;23.42;3.52;;;;;;;16.38;77.87;96171.09;1721096;82;21156;-77
2021/05/02 04:39:33;;;;;;;8.15;4.50;;;;;;;16.44;77.93;96166.39;1728172;82;21131;-78
2021/05/02 04:42:00;;;;;;;11.33;4.70;;;;;;;16.52;78.01;96164.97;1721320;82;21124;-78
2021/05/02 04:44:28;;;;;;;16.97;5.03;;;;;;;16.61;78.06;96154.23;1743320;82;21172;-79
2021/05/02 04:46:55;;;;;;;10.68;3.87;;;;;;;16.60;77.74;96151.25;1743721;82;21180;-77
2021/05/02 04:49:23;;;;;;;13.98;5.30;;;;;;;16.51;77.48;96155.86;1742120;82;21153;-75
2021/05/02 04:51:50;;;;;;;9.30;4.05;;;;;;;16.38;77.00;96160.45;1714306;82;21139;-75
2021/05/02 04:54:20;;;;;;;10.95;5.33;;;;;;;16.32;77.11;96158.05;1713887;83;21305;-76
2021/05/02 04:56:48;;;;;;;5.67;2.87;;;;;;;16.28;77.13;96166.05;1714119;83;21136;-77
2021/05/02 04:59:15;;;;;;;11.88;4.33;;;;;;;16.27;77.21;96160.41;1727126;82;21566;-77
2021/05/02 05:01:44;;;;;;;11.00;4.85;;;;;;;16.22;76.66;96168.94;1718881;82;21162;-76
2021/05/02 05:04:13;;;;;;;12.65;4.28;;;;;;;16.29;77.06;96173.03;1718434;83;21155;-78
2021/05/02 05:06:40;;;;;;;15.23;4.83;;;;;;;16.39;77.09;96165.61;1718537;83;21143;-76
2021/05/02 05:09:07;;;;;;;9.68;4.28;;;;;;;16.57;77.31;96159.59;1720208;82;21179;-77
2021/05/02 05:11:36;;;;;;;11.22;4.15;;;;;;;16.79;77.29;96152.53;1715591;82;21159;-75
2021/05/02 05:14:04;;;;;;;16.50;5.42;;;;;;;17.08;77.54;96163.66;1713909;83;21317;-78
2021/05/02 05:16:32;;;;;;;8.95;3.98;;;;;;;17.70;77.47;96168.08;1713947;83;21164;-79
2021/05/02 05:19:00;;;;;;;14.35;4.72;;;;;;;18.38;77.10;96169.45;1715873;82;21238;-76
2021/05/02 05:21:27;;;;;;;13.28;3.20;;;;;;;18.80;75.73;96172.15;1738430;82;21164;-76
2021/05/02 05:23:55;;;;;;;11.55;4.65;;;;;;;19.04;74.92;96171.69;1743472;82;21156;-75
2021/05/02 05:26:22;;;;;;;13.13;4.62;;;;;;;19.01;73.72;96174.75;1743195;82;21128;-78
2021/05/02 05:28:49;;;;;;;11.85;5.12;;;;;;;19.02;72.52;96163.58;1743391;82;21152;-80
2021/05/02 05:31:17;;;;;;;11.35;4.60;;;;;;;18.88;71.31;96164.81;1743489;82;21586;-78
2021/05/02 05:33:44;;;;;;;18.37;5.92;;;;;;;19.08;71.59;96156.09;1743769;82;21569;-74
2021/05/02 05:36:11;;;;;;;15.08;5.05;;;;;;;19.53;70.77;96146.25;1728674;82;21147;-77
2021/05/02 05:38:38;;;;;;;9.13;5.08;;;;;;;20.14;70.14;96161.83;1743076;82;21186;-74
2021/05/02 05:41:06;;;;;;;10.55;4.70;;;;;;;20.42;68.88;96158.90;1743392;82;21156;-74
2021/05/02 05:43:33;;;;;;;11.35;4.75;;;;;;;20.39;67.99;96150.47;1729207;82;21140;-75
2021/05/02 05:46:00;;;;;;;8.63;4.08;;;;;;;20.13;66.19;96148.14;1713868;83;21136;-75
2021/05/02 05:48:28;;;;;;;9.93;4.85;;;;;;;19.97;64.56;96157.39;1715711;82;21128;-73
2021/05/02 05:50:55;;;;;;;9.68;4.12;;;;;;;20.03;65.54;96164.62;1713965;84;21136;-73
2021/05/02 05:53:22;;;;;;;15.18;4.58;;;;;;;20.34;64.11;96158.31;1713886;83;21164;-75
2021/05/02 05:55:50;;;;;;;8.70;4.25;;;;;;;20.41;64.51;96163.13;1689813;84;21104;-76
2021/05/02 05:58:18;;;;;;;14.13;4.72;;;;;;;20.59;64.86;96149.92;1737434;82;21137;-74
2021/05/02 06:00:45;;;;;;;15.88;5.00;;;;;;;20.67;64.09;96155.57;1743362;81;21153;-74
2021/05/02 06:03:12;;;;;;;13.35;4.55;;;;;;;20.72;64.15;96148.25;1743239;82;21206;-75
2021/05/02 06:05:39;;;;;;;9.78;4.00;;;;;;;20.96;63.51;96150.77;1725676;82;21170;-75
2021/05/02 06:08:07;;;;;;;9.08;4.17;;;;;;;21.01;62.82;96164.87;1713977;82;21155;-74
2021/05/02 06:10:34;;;;;;;9.80;5.12;;;;;;;20.93;63.12;96149.04;1715791;82;21132;-75
2021/05/02 06:13:01;;;;;;;12.50;4.85;;;;;;;20.88;63.15;96149.14;1713865;83;21139;-75
2021/05/02 06:15:28;;;;;;;11.93;5.60;;;;;;;20.83;63.25;96142.27;1713823;83;21120;-74
2021/05/02 06:17:55;;;;;;;13.08;4.80;;;;;;;20.77;62.27;96143.09;1713728;84;21246;-75
2021/05/02 06:20:23;;;;;;;14.75;5.28;;;;;;;20.51;62.20;96143.98;1719674;82;21163;-76
2021/05/02 06:22:51;;;;;;;19.15;5.25;;;;;;;20.53;63.26;96143.23;1718394;83;21159;-74
2021/05/02 06:25:19;;;;;;;8.40;3.92;;;;;;;20.67;63.31;96145.36;1723682;82;21160;-75
2021/05/02 06:27:46;;;;;;;18.27;5.60;;;;;;;20.69;63.08;96144.14;1717567;82;21136;-75
2021/05/02 06:30:14;;;;;;;11.20;5.08;;;;;;;20.54;62.64;96149.73;1709515;83;21156;-76
2021/05/02 06:32:42;;;;;;;14.18;5.70;;;;;;;20.63;63.51;96154.33;1738720;82;21595;-73
2021/05/02 06:35:11;;;;;;;8.18;4.87;;;;;;;21.02;60.95;96161.96;1741852;82;21133;-75
2021/05/02 06:37:38;;;;;;;14.53;4.53;;;;;;;21.10;61.46;96164.93;1736750;82;21135;-75
2021/05/02 06:40:07;;;;;;;9.48;4.35;;;;;;;20.96;59.93;96160.14;1729019;82;21593;-74
2021/05/02 06:42:35;;;;;;;12.78;5.00;;;;;;;20.76;60.02;96158.86;1712040;84;21164;-75
2021/05/02 06:45:05;;;;;;;10.58;5.17;;;;;;;20.67;60.71;96162.77;1712048;84;21148;-73
2021/05/02 06:47:32;;;;;;;17.00;5.72;;;;;;;20.79;60.90;96166.47;1712289;84;21177;-76
2021/05/02 06:49:59;;;;;;;15.20;4.53;;;;;;;20.86;61.03;96161.91;1713741;82;21148;-74
2021/05/02 06:52:27;;;;;;;11.53;4.87;;;;;;;21.08;61.31;96162.14;1712592;82;21616;-74
2021/05/02 06:54:55;;;;;;;13.32;4.28;;;;;;;21.14;60.39;96166.13;1741541;82;21185;-74
2021/05/02 06:57:23;;;;;;;11.75;4.55;;;;;;;21.21;60.52;96164.77;1741502;82;21184;-75
2021/05/02 06:59:50;;;;;;;10.20;2.85;;;;;;;21.30;60.70;96168.84;1741708;82;21121;-75
2021/05/02 07:02:17;;;;;;;11.30;5.17;;;;;;;21.42;60.28;96171.66;1741671;82;21195;-76
2021/05/02 07:04:45;;;;;;;9.28;3.60;;;;;;;21.61;59.83;96169.11;1741508;82;21182;-75
2021/05/02 07:07:12;;;;;;;10.38;4.83;;;;;;;21.72;59.66;96170.27;1741526;82;21589;-75
2021/05/02 07:09:41;;;;;;;10.10;4.25;;;;;;;21.68;59.55;96165.86;1741762;82;21145;-74
2021/05/02 07:12:08;;;;;;;11.80;4.75;;;;;;;21.80;59.70;96164.67;1731580;82;21140;-74
2021/05/02 07:14:35;;;;;;;14.40;5.00;;;;;;;21.78;59.39;96157.35;1730760;82;21147;-73
2021/05/02 07:17:03;;;;;;;10.48;4.20;;;;;;;21.74;59.85;96156.97;1739110;82;21213;-76
2021/05/02 07:19:30;;;;;;;15.63;4.65;;;;;;;21.84;60.13;96163.17;1741693;82;21179;-76
2021/05/02 07:22:02;;;;;;;10.82;4.85;;;;;;;22.00;60.08;96172.56;1741752;82;21176;-75
2021/05/02 07:24:27;;;;;;;16.42;5.28;;;;;;;22.24;60.35;96172.76;1739566;82;21141;-74
2021/05/02 07:26:54;;;;;;;18.98;5.80;;;;;;;22.42;59.70;96168.80;1721286;82;21174;-74
2021/05/02 07:29:22;;;;;;;14.07;4.72;;;;;;;22.48;59.32;96162.27;1720714;83;21175;-75
2021/05/02 07:31:50;;;;;;;14.70;5.85;;;;;;;22.59;59.17;96164.22;1718550;83;21139;-76
2021/05/02 07:34:19;;;;;;;13.18;4.60;;;;;;;22.67;59.12;96176.52;1718492;83;21128;-75
2021/05/02 07:36:46;;;;;;;12.43;4.42;;;;;;;22.78;58.87;96177.13;1718438;83;21565;-75
2021/05/02 07:39:14;;;;;;;11.75;4.40;;;;;;;22.90;57.60;96174.52;1718885;83;21104;-76
2021/05/02 07:41:42;;;;;;;14.25;5.00;;;;;;;23.22;57.49;96174.37;1715183;82;21196;-72
2021/05/02 07:44:09;;;;;;;15.93;4.35;;;;;;;23.49;57.50;96177.52;1701027;83;21132;-77
2021/05/02 07:46:37;;;;;;;11.03;4.08;;;;;;;23.74;57.50;96180.61;1718859;83;21133;-74
2021/05/02 07:49:06;;;;;;;10.15;3.37;;;;;;;23.96;57.06;96189.00;1718500;83;21167;-76
2021/05/02 07:51:34;;;;;;;16.25;3.67;;;;;;;24.17;56.52;96184.13;1718192;83;21131;-79
2021/05/02 07:54:02;;;;;;;11.22;2.45;;;;;;;24.16;55.27;96178.45;1712302;83;21172;-75
2021/05/02 07:56:29;;;;;;;4.55;2.22;;;;;;;24.23;55.26;96181.84;1708083;83;21117;-77
2021/05/02 07:58:56;;;;;;;9.15;2.10;;;;;;;24.24;54.59;96182.14;1708208;83;21168;-75
2021/05/02 08:01:23;;;;;;;7.67;1.98;;;;;;;24.24;53.62;96178.09;1708047;83;21180;-76
2021/05/02 08:03:51;;;;;;;5.53;1.90;;;;;;;24.26;52.96;96178.69;1708156;83;21164;-75
2021/05/02 08:06:20;;;;;;;4.75;1.60;;;;;;;24.28;51.93;96187.33;1708141;83;21173;-74
2021/05/02 08:08:48;;;;;;;5.50;1.50;;;;;;;24.30;50.68;96193.31;1716928;83;21168;-74
2021/05/02 08:11:16;;;;;;;8.08;1.77;;;;;;;24.30;50.80;96192.50;1717230;83;21180;-75
2021/05/02 08:13:43;;;;;;;7.10;1.80;;;;;;;24.25;50.75;96192.37;1719432;83;21120;-73
2021/05/02 08:16:10;;;;;;;12.15;1.70;;;;;;;24.35;50.92;96195.30;1731455;82;21164;-74
2021/05/02 08:18:38;;;;;;;8.60;1.82;;;;;;;24.68;50.42;96195.80;1729649;82;21160;-73
2021/05/02 08:21:09;;;;;;;7.87;1.80;;;;;;;25.04;49.56;96196.06;1723565;83;21555;-74
2021/05/02 08:23:34;;;;;;;4.65;1.35;;;;;;;25.33;48.79;96195.28;1721435;83;21137;-74
2021/05/02 08:26:03;;;;;;;5.00;1.50;;;;;;;25.56;48.10;96184.96;1728843;83;21116;-74
2021/05/02 08:28:32;;;;;;;10.80;2.47;;;;;;;25.76;47.47;96176.95;1720110;82;21610;-76
2021/05/02 08:30:59;;;;;;;7.00;1.77;;;;;;;25.83;45.94;96181.14;1722939;82;21550;-72
2021/05/02 08:33:27;;;;;;;5.65;1.62;;;;;;;25.90;46.84;96193.11;1722712;83;21113;-74
2021/05/02 08:35:54;;;;;;;9.63;1.62;;;;;;;26.18;45.67;96181.48;1716800;83;21196;-73
2021/05/02 08:38:21;;;;;;;9.78;1.70;;;;;;;26.45;45.82;96176.77;1718436;83;21171;-74
2021/05/02 08:40:48;;;;;;;8.28;1.55;;;;;;;26.72;44.84;96171.20;1718450;83;21569;-74
2021/05/02 08:43:18;;;;;;;15.70;2.40;;;;;;;26.97;44.69;96174.79;1718396;83;21145;-75
2021/05/02 08:45:47;;;;;;;11.25;1.77;;;;;;;27.18;43.69;96175.88;1718537;83;21167;-76
2021/05/02 08:48:14;;;;;;;7.37;1.75;;;;;;;27.39;43.58;96172.88;1718363;83;21168;-75
2021/05/02 08:50:41;;;;;;;8.80;2.02;;;;;;;27.58;42.82;96186.09;1718663;83;21212;-76
2021/05/02 08:53:09;;;;;;;9.65;1.72;;;;;;;27.75;42.34;96185.97;1718441;83;21565;-74
2021/05/02 08:55:36;;;;;;;7.95;2.02;;;;;;;27.97;41.68;96181.87;1718296;83;21196;-75
2021/05/02 08:58:03;;;;;;;11.63;1.60;;;;;;;28.04;41.59;96185.18;1718450;83;21176;-75
2021/05/02 09:00:33;;;;;;;16.97;3.02;;;;;;;27.94;41.14;96181.55;1718807;82;21144;-77
2021/05/02 09:03:00;;;;;;;13.20;2.00;;;;;;;27.75;41.13;96183.27;1718336;83;21160;-75
2021/05/02 09:05:33;;;;;;;12.93;1.82;;;;;;;27.48;40.74;96180.56;1715095;83;21132;-74
2021/05/02 09:08:01;;;;;;;7.05;2.30;;;;;;;27.32;40.34;96190.36;1714412;83;21175;-75
2021/05/02 09:10:32;;;;;;;11.43;2.10;;;;;;;27.05;41.33;96189.22;1716904;83;21188;-75
2021/05/02 09:13:02;;;;;;;7.60;1.85;;;;;;;27.05;41.14;96180.30;1718254;83;21144;-75
2021/05/02 09:15:30;;;;;;;9.55;1.90;;;;;;;27.00;39.03;96170.79;1718037;83;21156;-76
2021/05/02 09:18:09;;;;;;;10.60;1.67;;;;;;;27.10;40.01;96174.42;1716894;83;21578;-74
2021/05/02 09:20:51;;;;;;;11.12;2.08;;;;;;;27.22;39.35;96183.76;1717092;83;21554;-76
2021/05/02 09:23:18;;;;;;;10.68;2.02;;;;;;;27.23;39.54;96185.39;1716755;83;21188;-75
2021/05/02 09:25:48;;;;;;;5.37;1.70;;;;;;;27.28;39.39;96190.05;1702357;83;21196;-76
2021/05/02 09:28:16;;;;;;;6.58;1.62;;;;;;;27.24;38.88;96180.79;1708108;83;21200;-74
2021/05/02 09:30:43;;;;;;;6.47;1.90;;;;;;;26.98;37.92;96184.53;1724271;83;21144;-76
2021/05/02 09:33:27;;;;;;;10.45;1.85;;;;;;;26.72;38.85;96192.28;1726148;83;21140;-75
2021/05/02 09:35:54;;;;;;;7.95;1.70;;;;;;;26.52;39.10;96191.45;1726263;83;21171;-74
2021/05/02 09:38:21;;;;;;;8.48;1.77;;;;;;;26.46;39.76;96188.38;1726075;83;21167;-74
2021/05/02 09:40:52;;;;;;;4.95;1.12;;;;;;;26.43;39.83;96196.44;1725754;83;21184;-75
2021/05/02 09:43:40;;;;;;;10.20;2.35;;;;;;;26.45;39.70;96190.81;1726198;83;21140;-74
2021/05/02 09:46:29;;;;;;;11.43;2.10;;;;;;;26.39;39.92;96193.13;1726143;83;21515;-74
2021/05/02 09:49:13;;;;;;;10.78;2.22;;;;;;;26.32;40.19;96194.12;1725974;83;21172;-75
2021/05/02 09:51:52;;;;;;;14.63;2.12;;;;;;;26.26;40.73;96191.58;1723817;83;21156;-74
2021/05/02 09:54:27;;;;;;;6.58;1.92;;;;;;;26.28;41.46;96190.27;1724888;83;21156;-75
2021/05/02 09:59:35;;;;;;;10.78;1.60;;;;;;;26.48;39.88;96200.59;1819859;77;22583;-77
2021/05/02 10:02:14;;;;;;;11.15;1.77;;;;;;;26.48;41.28;96205.16;1828062;78;21231;-76
2021/05/02 10:04:56;;;;;;;10.15;2.05;;;;;;;26.49;40.83;96205.45;1826137;78;21680;-76
2021/05/02 10:07:28;;;;;;;12.82;1.40;;;;;;;26.49;41.05;96202.20;1809723;78;21545;-76
2021/05/02 10:09:57;;;;;;;12.70;2.12;;;;;;;26.48;41.27;96203.81;1828142;78;21730;-79
2021/05/02 10:12:26;;;;;;;6.78;1.80;;;;;;;26.39;41.26;96188.56;1803298;78;21166;-75
2021/05/02 10:14:55;;;;;;;11.15;1.62;;;;;;;26.40;41.21;96182.62;1795374;80;21144;-77
2021/05/02 10:17:24;;;;;;;9.55;2.30;;;;;;;26.27;41.22;96176.47;1795457;80;21160;-77
2021/05/02 10:19:52;;;;;;;6.87;2.02;;;;;;;26.19;41.24;96183.64;1797301;79;21134;-77
2021/05/02 10:22:21;;;;;;;8.05;1.92;;;;;;;26.11;40.86;96184.05;1800691;79;21147;-75
2021/05/02 10:24:49;;;;;;;5.45;1.32;;;;;;;25.93;40.97;96170.23;1796240;80;21132;-76
2021/05/02 10:27:17;;;;;;;6.37;1.80;;;;;;;26.02;40.85;96189.02;1795346;80;21149;-76
2021/05/02 10:29:51;;;;;;;16.57;2.60;;;;;;;26.14;40.94;96197.07;1795528;80;21113;-75
2021/05/02 10:32:23;;;;;;;10.93;2.02;;;;;;;26.17;40.76;96187.94;1802532;78;21166;-76
2021/05/02 10:34:57;;;;;;;11.30;2.20;;;;;;;26.13;40.28;96194.08;1806946;79;21719;-77
2021/05/02 10:37:27;;;;;;;9.85;2.17;;;;;;;25.92;40.12;96203.69;1820551;78;21154;-76
2021/05/02 10:40:19;;;;;;;8.68;1.65;;;;;;;25.79;40.68;96211.02;1795344;80;21176;-76
2021/05/02 10:42:50;;;;;;;10.88;1.65;;;;;;;25.66;40.56;96218.07;1797789;78;21145;-76
2021/05/02 10:45:40;;;;;;;8.45;1.95;;;;;;;25.53;41.11;96216.45;1795413;80;21149;-74
2021/05/02 10:48:27;;;;;;;11.38;2.17;;;;;;;25.43;41.23;96213.04;1797832;78;21552;-78
2021/05/02 10:50:55;;;;;;;9.15;1.80;;;;;;;25.32;41.15;96220.09;1791719;80;21290;-75
2021/05/02 10:53:26;;;;;;;11.68;2.12;;;;;;;25.23;41.57;96224.22;1764115;81;21171;-76
2021/05/02 10:56:07;;;;;;;9.35;2.83;;;;;;;25.14;41.22;96225.64;1759485;81;21179;-76
2021/05/02 10:58:40;;;;;;;13.70;2.30;;;;;;;25.02;41.19;96236.42;1735813;82;21235;-76
2021/05/02 11:01:10;;;;;;;9.83;2.08;;;;;;;24.95;41.52;96247.34;1718476;83;21201;-75
2021/05/02 11:03:51;;;;;;;11.90;2.42;;;;;;;24.95;41.56;96248.16;1786371;80;21662;-74
2021/05/02 11:06:39;;;;;;;10.25;2.30;;;;;;;24.85;41.53;96253.86;1786461;79;21672;-75
2021/05/02 11:09:18;;;;;;;16.32;2.55;;;;;;;24.72;41.90;96265.69;1793555;79;21135;-76
2021/05/02 11:11:54;;;;;;;8.45;1.75;;;;;;;24.58;42.02;96282.58;1808680;79;21519;-75
2021/05/02 11:14:26;;;;;;;11.43;2.33;;;;;;;24.38;42.47;96321.92;1812815;79;21151;-75
2021/05/02 11:17:05;;;;;;;7.92;1.57;;;;;;;23.95;43.92;96293.65;1785715;80;21163;-77
2021/05/02 11:19:39;;;;;;;9.40;1.75;;;;;;;23.58;45.39;96280.74;1792464;79;21537;-80
2021/05/02 11:22:10;;;;;;;11.22;2.30;;;;;;;23.32;46.81;96309.09;1786109;80;21183;-80
2021/05/02 11:24:50;;;;;;;9.80;1.87;;;;;;;23.01;47.95;96308.66;1786171;80;21136;-75
2021/05/02 11:27:36;;;;;;;10.18;2.22;;;;;;;22.72;48.69;96308.30;1789865;79;21159;-75
2021/05/02 11:32:38;;;;;;;13.55;2.08;;;;;;;22.43;49.79;96296.63;1790935;79;21126;-75
2021/05/02 11:35:15;;;;;;;10.43;1.65;;;;;;;22.45;50.37;96291.87;1797090;79;21163;-76
2021/05/02 11:38:03;;;;;;;7.75;1.95;;;;;;;22.53;50.26;96282.73;1778780;80;21152;-76
2021/05/02 11:40:35;;;;;;;11.60;2.37;;;;;;;22.62;50.53;96281.92;1785693;80;21195;-75
2021/05/02 11:43:12;;;;;;;10.27;1.50;;;;;;;22.84;50.41;96273.47;1786056;80;21186;-75
2021/05/02 11:46:06;;;;;;;3.55;1.32;;;;;;;23.04;50.31;96272.75;1806581;79;21362;-74
2021/05/02 11:48:39;;;;;;;11.57;1.65;;;;;;;23.22;50.55;96265.23;1792709;79;21145;-76
2021/05/02 11:51:20;;;;;;;6.15;1.80;;;;;;;23.23;50.19;96215.81;1786059;80;21155;-76